Terminal Aerodrome Forecast
Issued by NWS Houston/Galveston, TX

Home | Current Version | Previous Version | Text Only | Print | Product List | Glossary On
Versions: 1 2 3 4 5 6 7 8 9 10 11 12 13 14 15 16 17 18 19 20 21 22 23 24 25 26 27 28 29 30 31 32 33 34 35 36 37 38 39 40 41 42
000
FTUS44 KHGX 271226 AAA
TAFGLS
TAF AMD
KGLS 271226Z 2712/2812 26015G25KT 2SM TSRA BR SCT018 BKN035CB
     FM271300 20012KT P6SM VCTS BKN035CB
      TEMPO 2713/2716 VRB13G25KT 3SM TSRA BR BKN020CB
     FM272100 18011KT P6SM SCT050 BKN120
     FM280900 18009KT P6SM SCT020 BKN250=

USA.gov is the U.S. government's official web portal to all federal, state and local government web resources and services.